Time;durP1;ratioP1;P1;durP2;ratioP2;P2;SDS_P1;SDS_P2;PMS_P1;PMS_P2;Temp;Humidity;BMP_temperature;BMP_pressure;BME280_temperature;BME280_humidity;BME280_pressure;Samples;Min_cycle;Max_cycle;Signal;HPM_P1;HPM_P2
2021/12/08 00:01:32;;;;;;;27.52;7.82;;;;;;;3.23;100.00;99229.16;5008467;28;20402;-89
2021/12/08 00:03:57;;;;;;;23.52;7.70;;;;;;;3.31;100.00;99245.22;5009092;28;20398;-89
2021/12/08 00:06:25;;;;;;;24.25;7.40;;;;;;;3.27;100.00;99244.44;5010164;28;20471;-89
2021/12/08 00:09:04;;;;;;;26.85;8.20;;;;;;;3.28;100.00;99237.56;5011006;28;20042;-90
2021/12/08 00:14:15;;;;;;;27.25;8.05;;;;;;;3.40;100.00;99242.47;5010037;28;20246;-89
2021/12/08 00:16:40;;;;;;;28.60;7.90;;;;;;;3.39;100.00;99244.19;5012070;28;20038;-89
2021/12/08 00:19:06;;;;;;;30.48;7.57;;;;;;;3.36;100.00;99217.78;5012068;28;20030;-89
2021/12/08 00:21:34;;;;;;;27.23;7.80;;;;;;;3.38;100.00;99223.72;5013076;28;20076;-89
2021/12/08 00:23:59;;;;;;;27.65;7.45;;;;;;;3.46;100.00;99232.94;5008833;28;20080;-89
2021/12/08 00:26:27;;;;;;;24.10;7.72;;;;;;;3.47;100.00;99231.22;5010801;28;20029;-89
2021/12/08 00:28:52;;;;;;;20.83;7.30;;;;;;;3.39;100.00;99221.13;5012082;28;20034;-89
2021/12/08 00:31:18;;;;;;;29.38;7.65;;;;;;;3.43;100.00;99221.91;5007796;28;20041;-89
2021/12/08 00:33:43;;;;;;;24.40;7.93;;;;;;;3.54;100.00;99236.19;5011719;28;20482;-89
2021/12/08 00:36:14;;;;;;;26.75;7.53;;;;;;;3.59;100.00;99241.22;5011262;28;20018;-89
2021/12/08 00:38:40;;;;;;;26.85;7.85;;;;;;;3.62;100.00;99240.31;5011325;28;20156;-89
2021/12/08 00:41:08;;;;;;;23.38;7.30;;;;;;;3.64;100.00;99249.63;5009728;28;20109;-89
2021/12/08 00:43:34;;;;;;;25.35;7.75;;;;;;;3.69;100.00;99252.94;5012270;28;20022;-89
2021/12/08 00:45:59;;;;;;;29.20;7.63;;;;;;;3.72;100.00;99241.78;5008006;28;20275;-89
2021/12/08 00:48:25;;;;;;;25.90;7.53;;;;;;;3.75;100.00;99232.31;5020311;28;20474;-89
2021/12/08 00:50:51;;;;;;;25.52;7.05;;;;;;;3.79;100.00;99227.97;5012080;28;20050;-89
2021/12/08 00:53:17;;;;;;;24.90;7.65;;;;;;;3.76;100.00;99233.16;5014756;28;20076;-89
2021/12/08 00:55:43;;;;;;;29.23;7.55;;;;;;;3.71;100.00;99214.47;5020293;28;20105;-89
2021/12/08 00:58:08;;;;;;;24.33;6.97;;;;;;;3.84;100.00;99233.81;5011426;28;20372;-89
2021/12/08 01:00:39;;;;;;;26.38;7.00;;;;;;;3.76;100.00;99222.88;5011366;28;20419;-89
2021/12/08 01:03:05;;;;;;;25.10;7.05;;;;;;;3.82;100.00;99226.16;5011174;28;20106;-89
2021/12/08 01:05:37;;;;;;;23.77;7.20;;;;;;;3.89;100.00;99240.53;5008083;28;20033;-89
2021/12/08 01:08:07;;;;;;;24.42;7.05;;;;;;;3.94;100.00;99248.13;5010135;28;20112;-89
2021/12/08 01:10:33;;;;;;;28.30;7.32;;;;;;;3.98;100.00;99252.28;5009789;28;20510;-89
2021/12/08 01:12:58;;;;;;;24.02;7.07;;;;;;;4.01;100.00;99248.84;5011062;28;20192;-89
2021/12/08 01:15:29;;;;;;;21.55;6.65;;;;;;;4.08;100.00;99271.72;5009207;28;20509;-89
2021/12/08 01:17:55;;;;;;;21.52;6.18;;;;;;;4.12;100.00;99263.09;5002933;28;20319;-89
2021/12/08 01:20:21;;;;;;;20.67;5.93;;;;;;;4.12;100.00;99255.38;5010482;28;20258;-89
2021/12/08 01:22:47;;;;;;;24.02;6.28;;;;;;;4.26;100.00;99262.75;5009149;28;20033;-89
2021/12/08 01:25:13;;;;;;;17.58;5.47;;;;;;;4.27;100.00;99252.47;5009563;28;20029;-88
2021/12/08 01:27:39;;;;;;;14.05;4.78;;;;;;;4.27;100.00;99249.06;5010206;28;20033;-89
2021/12/08 01:30:07;;;;;;;22.77;6.25;;;;;;;4.39;100.00;99266.72;5008352;28;20113;-88
2021/12/08 01:32:33;;;;;;;21.70;5.97;;;;;;;4.37;100.00;99256.47;5009876;28;20056;-89
2021/12/08 01:34:58;;;;;;;19.75;6.03;;;;;;;4.38;100.00;99270.16;5010579;28;20079;-89
2021/12/08 01:37:24;;;;;;;17.60;5.65;;;;;;;4.47;100.00;99261.41;5010379;28;20037;-89
2021/12/08 01:39:49;;;;;;;16.27;5.80;;;;;;;4.47;100.00;99262.25;5008918;28;20415;-89
2021/12/08 01:42:18;;;;;;;18.35;5.63;;;;;;;4.57;100.00;99279.09;5010479;28;20061;-89
2021/12/08 01:47:28;;;;;;;;;;;;;;;4.63;100.00;99285.81;5009486;28;20087;-89
2021/12/08 01:49:54;;;;;;;17.77;4.72;;;;;;;4.58;100.00;99269.66;5011069;28;19916;-89
2021/12/08 01:52:20;;;;;;;15.93;4.93;;;;;;;4.59;100.00;99282.47;5009135;28;20054;-89
2021/12/08 01:54:46;;;;;;;22.70;5.72;;;;;;;4.70;100.00;99293.34;5009913;28;20018;-90
2021/12/08 01:57:11;;;;;;;16.75;6.00;;;;;;;4.73;100.00;99293.25;5009486;28;20041;-89
2021/12/08 01:59:39;;;;;;;21.67;5.68;;;;;;;4.78;100.00;99292.28;5009078;28;20029;-89
2021/12/08 02:02:07;;;;;;;16.05;5.05;;;;;;;4.79;100.00;99292.22;5010895;28;20026;-89
2021/12/08 02:04:33;;;;;;;19.02;4.55;;;;;;;4.81;100.00;99293.03;5010239;28;20026;-89
2021/12/08 02:07:00;;;;;;;19.25;5.43;;;;;;;4.75;100.00;99277.81;5008261;28;20040;-89
2021/12/08 02:09:28;;;;;;;18.25;5.20;;;;;;;4.84;100.00;99300.69;5008918;28;20026;-89
2021/12/08 02:11:56;;;;;;;18.35;4.90;;;;;;;4.82;100.00;99296.47;5009901;28;20084;-89
2021/12/08 02:14:22;;;;;;;18.13;5.18;;;;;;;4.86;100.00;99295.50;5008733;28;20029;-89
2021/12/08 02:16:50;;;;;;;19.45;4.25;;;;;;;4.90;100.00;99315.09;5008816;28;20084;-89
2021/12/08 02:19:16;;;;;;;22.30;4.72;;;;;;;4.80;100.00;99293.94;5009466;28;20032;-89
2021/12/08 02:21:51;;;;;;;18.38;4.90;;;;;;;4.86;100.00;99295.50;5008831;28;20026;-89
2021/12/08 02:24:17;;;;;;;16.98;4.50;;;;;;;4.94;100.00;99309.81;5003222;28;20026;-89
2021/12/08 02:26:47;;;;;;;22.98;5.55;;;;;;;4.85;100.00;99297.22;5009894;28;20029;-90
2021/12/08 02:29:21;;;;;;;20.48;5.53;;;;;;;4.98;100.00;99323.44;5008672;28;20041;-89
2021/12/08 02:48:03;;;;;;;21.38;6.22;;;;;;;4.82;100.00;99334.97;5009969;28;20060;-89
2021/12/08 02:50:35;;;;;;;17.33;4.57;;;;;;;4.83;100.00;99336.66;5006812;28;20037;-89
2021/12/08 02:53:03;;;;;;;23.13;5.50;;;;;;;4.80;100.00;99354.69;5006593;28;20032;-89
2021/12/08 02:55:32;;;;;;;19.60;5.07;;;;;;;4.70;100.00;99344.66;5009118;28;20053;-90
2021/12/08 02:58:03;;;;;;;22.02;5.25;;;;;;;4.63;100.00;99347.41;5008435;28;20033;-90
2021/12/08 03:00:33;;;;;;;23.17;5.35;;;;;;;4.55;100.00;99344.16;5007921;28;20391;-89
2021/12/08 03:03:01;;;;;;;25.98;6.38;;;;;;;4.55;100.00;99334.75;5009786;28;20076;-89
2021/12/08 03:05:28;;;;;;;18.52;5.63;;;;;;;4.59;100.00;99338.91;5009059;28;20057;-89
2021/12/08 03:07:54;;;;;;;21.38;5.55;;;;;;;4.65;100.00;99346.47;5008120;28;20415;-89
2021/12/08 03:10:24;;;;;;;24.35;5.50;;;;;;;4.70;100.00;99348.94;5000350;28;20022;-89
2021/12/08 03:12:49;;;;;;;24.13;5.55;;;;;;;4.73;100.00;99338.59;5007927;28;20036;-90
2021/12/08 03:15:16;;;;;;;19.77;5.15;;;;;;;4.69;100.00;99342.97;5007547;28;20025;-89
2021/12/08 03:17:42;;;;;;;21.55;5.70;;;;;;;4.74;100.00;99343.69;5007855;28;20029;-89
2021/12/08 03:20:11;;;;;;;22.02;4.88;;;;;;;4.73;100.00;99339.44;5010818;28;20033;-88
2021/12/08 03:22:42;;;;;;;20.08;5.00;;;;;;;4.71;100.00;99346.31;5009487;28;20449;-88
2021/12/08 03:25:12;;;;;;;21.70;5.07;;;;;;;4.78;100.00;99352.16;5010296;28;20080;-90
2021/12/08 03:27:45;;;;;;;24.15;5.15;;;;;;;4.76;100.00;99354.78;5008967;28;20037;-89
2021/12/08 03:30:18;;;;;;;25.38;5.40;;;;;;;4.78;100.00;99359.84;5008185;28;20060;-90
2021/12/08 03:32:44;;;;;;;20.77;5.13;;;;;;;4.75;100.00;99350.53;5009593;28;20112;-90
2021/12/08 03:35:13;;;;;;;25.15;5.85;;;;;;;4.86;100.00;99370.78;5008113;28;20097;-89
2021/12/08 03:37:46;;;;;;;29.10;5.78;;;;;;;4.78;100.00;99368.41;5008186;28;20030;-90
2021/12/08 03:40:18;;;;;;;20.50;5.10;;;;;;;4.89;100.00;99375.00;5009732;28;20034;-89
2021/12/08 03:42:44;;;;;;;23.45;4.95;;;;;;;4.82;100.00;99363.19;5011899;28;20380;-90
2021/12/08 03:45:35;;;;;;;25.10;5.40;;;;;;;4.81;100.00;99362.34;5010870;28;20037;-89
2021/12/08 03:48:08;;;;;;;20.17;4.20;;;;;;;4.84;100.00;99364.00;5009198;28;20121;-89
2021/12/08 03:50:41;;;;;;;19.50;5.03;;;;;;;4.78;100.00;99367.53;5012185;28;20025;-90
2021/12/08 03:53:08;;;;;;;21.05;4.72;;;;;;;4.62;100.00;99368.81;5013211;28;20613;-89
2021/12/08 03:55:34;;;;;;;32.15;4.70;;;;;;;4.45;100.00;99366.63;5012470;28;20119;-89
2021/12/08 03:57:59;;;;;;;24.02;5.05;;;;;;;4.43;100.00;99382.94;5011537;28;20065;-89
2021/12/08 04:00:29;;;;;;;21.55;5.03;;;;;;;4.34;100.00;99386.53;5012095;28;20033;-89
2021/12/08 04:02:59;;;;;;;24.20;4.85;;;;;;;4.26;100.00;99386.72;5011748;28;20165;-89
2021/12/08 04:05:40;;;;;;;20.33;4.00;;;;;;;4.17;100.00;99386.03;5011481;28;20025;-89
2021/12/08 04:08:16;;;;;;;16.77;4.60;;;;;;;4.11;100.00;99384.47;5011056;28;20022;-90
2021/12/08 04:10:49;;;;;;;21.92;4.72;;;;;;;4.05;100.00;99388.88;5010175;28;20123;-90
2021/12/08 04:13:18;;;;;;;24.30;4.57;;;;;;;3.98;100.00;99390.72;5009921;28;20049;-89
2021/12/08 04:15:44;;;;;;;20.73;4.93;;;;;;;3.96;100.00;99392.47;5011434;28;20530;-89
2021/12/08 04:18:10;;;;;;;23.80;4.60;;;;;;;3.88;100.00;99397.78;5012505;28;20029;-89
2021/12/08 04:20:41;;;;;;;20.60;4.38;;;;;;;3.82;100.00;99397.88;5010200;28;20017;-88
2021/12/08 04:23:09;;;;;;;23.50;4.47;;;;;;;3.71;100.00;99388.72;5004923;28;20430;-89
2021/12/08 04:25:39;;;;;;;26.67;4.82;;;;;;;3.68;100.00;99405.00;5011202;28;20506;-89
2021/12/08 04:28:10;;;;;;;19.33;3.90;;;;;;;3.57;100.00;99401.78;5010754;28;20117;-89
2021/12/08 04:30:41;;;;;;;16.23;4.10;;;;;;;3.53;100.00;99402.72;5010485;28;20022;-89
2021/12/08 04:33:08;;;;;;;17.02;4.10;;;;;;;3.44;100.00;99401.16;5001875;28;20081;-89
2021/12/08 04:35:34;;;;;;;19.80;5.47;;;;;;;3.33;100.00;99402.22;5009976;28;20026;-89
2021/12/08 04:38:07;;;;;;;20.30;5.43;;;;;;;3.37;100.00;99414.09;5012422;28;20030;-89
2021/12/08 04:43:25;;;;;;;16.23;4.00;;;;;;;3.26;100.00;99409.19;5012176;28;20474;-89
2021/12/08 04:46:13;;;;;;;15.45;3.90;;;;;;;3.23;100.00;99408.38;5011162;28;20034;-89
2021/12/08 04:49:16;;;;;;;23.08;4.90;;;;;;;3.17;100.00;99399.94;5011511;28;20026;-89
2021/12/08 04:51:52;;;;;;;31.42;4.53;;;;;;;3.17;100.00;99404.19;5007939;28;20053;-89
2021/12/08 05:03:15;;;;;;;22.83;3.85;;;;;;;3.07;100.00;99411.19;5011987;28;20039;-89
2021/12/08 05:08:13;;;;;;;20.25;3.45;;;;;;;2.98;100.00;99415.63;5012042;28;20038;-89
2021/12/08 05:10:39;;;;;;;14.65;3.45;;;;;;;2.97;100.00;99429.28;5008516;28;20036;-90
2021/12/08 05:13:10;;;;;;;24.95;4.03;;;;;;;2.89;100.00;99431.97;5011252;28;20026;-90
2021/12/08 05:15:45;;;;;;;18.60;4.13;;;;;;;2.81;100.00;99420.13;5009505;28;20036;-89
2021/12/08 05:18:23;;;;;;;16.20;3.85;;;;;;;2.87;100.00;99446.47;5011867;28;20105;-89
2021/12/08 05:21:03;;;;;;;18.98;3.97;;;;;;;2.81;100.00;99444.00;5011515;28;20119;-89
2021/12/08 05:23:34;;;;;;;20.05;3.20;;;;;;;2.77;100.00;99429.59;5009177;28;20033;-89
2021/12/08 05:26:07;;;;;;;19.27;3.30;;;;;;;2.85;100.00;99445.69;5011309;28;20054;-89
2021/12/08 05:28:33;;;;;;;19.15;3.53;;;;;;;2.91;100.00;99437.91;5007236;28;20474;-89
2021/12/08 05:31:09;;;;;;;26.42;3.65;;;;;;;2.98;100.00;99431.81;5003785;28;20029;-90
2021/12/08 05:33:37;;;;;;;21.20;3.40;;;;;;;3.14;100.00;99433.25;5009462;28;20033;-90
2021/12/08 05:36:03;;;;;;;17.08;3.20;;;;;;;3.25;100.00;99437.38;5009676;28;20033;-90
2021/12/08 05:38:29;;;;;;;17.15;3.22;;;;;;;3.27;100.00;99449.28;5006900;28;20245;-90
2021/12/08 05:41:04;;;;;;;19.45;3.33;;;;;;;3.22;100.00;99440.81;5010766;28;20030;-89
2021/12/08 05:43:29;;;;;;;;;;;;;;;3.36;100.00;99453.38;5007357;28;20478;-91
2021/12/08 05:45:55;;;;;;;21.75;3.10;;;;;;;3.38;100.00;99454.22;5007722;28;19920;-89
2021/12/08 05:48:21;;;;;;;19.70;3.13;;;;;;;3.40;100.00;99465.28;5007112;28;20379;-89
2021/12/08 05:51:13;;;;;;;17.75;3.20;;;;;;;3.39;100.00;99469.56;5027256;28;20045;-89
2021/12/08 05:53:41;;;;;;;17.08;3.40;;;;;;;3.34;100.00;99476.47;5031034;28;20037;-89
2021/12/08 05:56:08;;;;;;;18.55;2.88;;;;;;;3.34;100.00;99470.50;5025780;28;20035;-89
2021/12/08 05:58:34;;;;;;;22.65;3.13;;;;;;;3.39;100.00;99471.28;5028149;28;20461;-90
2021/12/08 06:01:07;;;;;;;17.58;3.00;;;;;;;3.44;100.00;99482.28;5012999;28;20033;-89
2021/12/08 06:03:34;;;;;;;21.58;3.78;;;;;;;3.42;100.00;99459.25;5014368;28;20053;-89
2021/12/08 06:06:03;;;;;;;30.80;3.60;;;;;;;3.52;100.00;99475.31;5005324;28;20122;-89
2021/12/08 06:08:29;;;;;;;17.92;3.33;;;;;;;3.55;100.00;99477.81;5008878;28;20275;-89
2021/12/08 06:10:58;;;;;;;17.85;4.07;;;;;;;3.56;100.00;99482.06;5010465;28;20215;-89
2021/12/08 06:13:27;;;;;;;15.60;3.42;;;;;;;3.47;100.00;99469.44;5010711;28;20040;-89
2021/12/08 06:15:53;;;;;;;22.88;3.55;;;;;;;3.47;100.00;99483.09;5008145;28;20034;-89
2021/12/08 06:18:23;;;;;;;20.00;3.22;;;;;;;3.51;100.00;99497.50;5009608;28;20403;-89
2021/12/08 06:20:51;;;;;;;19.30;3.60;;;;;;;3.41;100.00;99490.03;5010411;28;20021;-89
2021/12/08 06:23:17;;;;;;;18.35;3.63;;;;;;;3.48;100.00;99489.06;5004360;28;20029;-89
2021/12/08 06:25:42;;;;;;;23.80;3.58;;;;;;;3.45;100.00;99514.69;5008520;28;20030;-89
2021/12/08 06:28:09;;;;;;;22.50;3.70;;;;;;;3.41;100.00;99507.94;5009225;28;20026;-90
2021/12/08 06:30:37;;;;;;;21.70;3.50;;;;;;;3.42;100.00;99507.91;5006259;28;20117;-89
2021/12/08 06:33:04;;;;;;;20.83;3.03;;;;;;;3.43;100.00;99516.44;5003191;28;20041;-89
2021/12/08 06:35:38;;;;;;;20.10;3.40;;;;;;;3.45;100.00;99520.69;5008441;28;20046;-89
2021/12/08 06:38:08;;;;;;;18.50;3.33;;;;;;;3.41;100.00;99520.75;5009990;28;20407;-90
2021/12/08 06:40:37;;;;;;;29.33;3.58;;;;;;;3.46;100.00;99539.44;5009091;28;20027;-89
2021/12/08 06:43:07;;;;;;;18.00;3.30;;;;;;;3.50;100.00;99533.41;5008876;28;20116;-89
2021/12/08 06:45:36;;;;;;;15.60;3.58;;;;;;;3.45;100.00;99533.47;5009924;28;20052;-90
2021/12/08 06:48:07;;;;;;;27.08;3.70;;;;;;;3.49;100.00;99540.22;5010121;28;20030;-89
2021/12/08 06:50:38;;;;;;;20.40;3.10;;;;;;;3.48;100.00;99533.41;5009103;28;20038;-90
2021/12/08 06:53:04;;;;;;;25.05;3.60;;;;;;;3.46;100.00;99512.13;5009784;28;20437;-89
2021/12/08 06:55:35;;;;;;;23.92;3.35;;;;;;;3.46;100.00;99518.97;5007661;28;20052;-90
2021/12/08 06:58:12;;;;;;;27.92;3.80;;;;;;;3.44;100.00;99524.09;5005343;28;20265;-91
2021/12/08 07:01:14;;;;;;;22.50;3.78;;;;;;;3.36;100.00;99525.09;5007605;28;20030;-89
2021/12/08 07:03:52;;;;;;;20.90;3.58;;;;;;;3.25;100.00;99538.06;5008501;28;20022;-89
2021/12/08 07:09:03;;;;;;;;;;;;;;;3.09;100.00;99527.19;5008720;28;20424;-89
2021/12/08 07:11:31;;;;;;;30.88;4.03;;;;;;;2.96;100.00;99523.13;5006986;28;19910;-89
2021/12/08 07:13:57;;;;;;;25.23;3.97;;;;;;;2.86;100.00;99531.81;5008534;28;20084;-89
2021/12/08 07:16:29;;;;;;;22.73;3.65;;;;;;;2.81;100.00;99542.94;5011369;28;20038;-89
2021/12/08 07:19:21;;;;;;;20.52;3.70;;;;;;;2.70;100.00;99538.00;5010973;28;20044;-89
2021/12/08 07:21:47;;;;;;;27.38;4.07;;;;;;;2.64;100.00;99556.81;5010617;28;20037;-90
2021/12/08 07:24:20;;;;;;;24.88;4.93;;;;;;;2.59;100.00;99558.59;5010830;28;20431;-89
2021/12/08 07:26:49;;;;;;;18.80;3.95;;;;;;;2.59;100.00;99560.31;5012001;28;20088;-90
2021/12/08 07:29:17;;;;;;;16.83;3.78;;;;;;;2.53;100.00;99558.66;5012117;28;20022;-90
2021/12/08 07:31:52;;;;;;;26.38;3.78;;;;;;;2.47;100.00;99563.00;5010700;28;20092;-90
2021/12/08 07:34:19;;;;;;;32.17;4.72;;;;;;;2.50;100.00;99583.44;5000723;28;20041;-90
2021/12/08 07:36:51;;;;;;;20.13;3.95;;;;;;;2.43;100.00;99592.03;5009974;28;20064;-90
2021/12/08 07:39:26;;;;;;;25.10;4.95;;;;;;;2.36;100.00;99574.19;5010969;28;20018;-89
2021/12/08 07:41:58;;;;;;;31.75;4.00;;;;;;;2.46;100.00;99597.13;5010897;28;20044;-89
2021/12/08 07:44:24;;;;;;;27.90;3.83;;;;;;;2.44;100.00;99598.84;5012053;28;20029;-90
2021/12/08 07:46:58;;;;;;;24.40;3.83;;;;;;;2.39;100.00;99594.59;5005157;28;20029;-90
2021/12/08 07:49:28;;;;;;;25.25;4.00;;;;;;;2.40;100.00;99610.78;5013051;28;20029;-91
2021/12/08 07:51:59;;;;;;;21.65;3.85;;;;;;;2.37;100.00;99601.47;5010212;28;20046;-90
2021/12/08 07:54:26;;;;;;;23.50;4.40;;;;;;;2.41;100.00;99607.38;5027022;28;20018;-90
2021/12/08 07:56:56;;;;;;;27.45;4.40;;;;;;;2.43;100.00;99592.03;5011335;28;20192;-90
2021/12/08 07:59:22;;;;;;;25.98;4.18;;;;;;;2.58;100.00;99602.09;5012059;28;20487;-90
2021/12/08 08:01:54;;;;;;;26.17;4.20;;;;;;;2.58;100.00;99591.88;5007188;28;20120;-90
2021/12/08 08:04:23;;;;;;;24.08;3.70;;;;;;;2.73;100.00;99601.88;5013167;28;20400;-89
2021/12/08 08:06:58;;;;;;;23.00;4.03;;;;;;;2.76;100.00;99589.06;5022722;28;20049;-89
2021/12/08 08:09:29;;;;;;;19.38;4.32;;;;;;;2.90;100.00;99604.25;5011590;28;21499;-89
2021/12/08 08:12:00;;;;;;;19.15;3.45;;;;;;;2.96;100.00;99606.72;5003985;28;20030;-90
2021/12/08 08:14:37;;;;;;;22.92;3.40;;;;;;;3.00;100.00;99604.09;5011408;28;20038;-90
2021/12/08 08:17:04;;;;;;;16.77;3.50;;;;;;;2.96;100.00;99589.66;5010706;28;20394;-90
2021/12/08 08:19:31;;;;;;;13.88;3.60;;;;;;;3.01;100.00;99597.28;5010677;28;20427;-90
2021/12/08 08:22:03;;;;;;;21.35;3.33;;;;;;;3.12;100.00;99616.75;5011388;28;20125;-90
2021/12/08 08:24:28;;;;;;;26.67;3.95;;;;;;;3.18;100.00;99618.38;5012807;28;20029;-90
2021/12/08 08:26:56;;;;;;;19.58;3.88;;;;;;;3.13;100.00;99605.66;5014311;28;20033;-90
2021/12/08 08:29:22;;;;;;;18.55;3.95;;;;;;;3.23;100.00;99628.56;5012991;28;20057;-89
2021/12/08 08:31:59;;;;;;;21.27;4.00;;;;;;;3.25;100.00;99624.28;5010369;28;20400;-88
2021/12/08 08:34:28;;;;;;;16.65;3.58;;;;;;;3.27;100.00;99633.63;5010402;28;20109;-89
2021/12/08 08:36:54;;;;;;;29.92;4.22;;;;;;;3.31;100.00;99624.19;5011702;28;20092;-89
2021/12/08 08:39:24;;;;;;;25.52;4.05;;;;;;;3.30;100.00;99628.47;5011282;28;20387;-89
2021/12/08 08:41:55;;;;;;;15.68;4.07;;;;;;;3.31;100.00;99624.19;5010544;28;20037;-89
2021/12/08 08:44:37;;;;;;;21.30;4.07;;;;;;;3.30;100.00;99620.78;5013544;28;20026;-89
2021/12/08 08:47:07;;;;;;;14.15;3.65;;;;;;;3.34;100.00;99611.34;5000718;28;20025;-89
2021/12/08 08:49:35;;;;;;;16.80;3.55;;;;;;;3.36;100.00;99595.06;5011545;28;20029;-89
2021/12/08 08:52:19;;;;;;;18.33;4.07;;;;;;;3.50;100.00;99603.41;5011992;28;20045;-89
2021/12/08 08:54:47;;;;;;;15.73;3.90;;;;;;;3.44;100.00;99588.13;5011397;28;20112;-89
2021/12/08 08:57:17;;;;;;;19.55;4.10;;;;;;;3.35;100.00;99579.72;5011795;28;20033;-89
2021/12/08 08:59:49;;;;;;;19.88;4.05;;;;;;;3.28;100.00;99594.34;5010128;28;20026;-88
2021/12/08 09:02:20;;;;;;;22.77;4.40;;;;;;;3.14;100.00;99586.84;5005049;28;20036;-88
2021/12/08 09:04:51;;;;;;;19.17;4.15;;;;;;;3.12;100.00;99596.28;5011903;28;20033;-90
2021/12/08 09:07:23;;;;;;;16.77;4.35;;;;;;;3.07;100.00;99608.28;5011496;28;20032;-90
2021/12/08 09:09:50;;;;;;;20.30;4.32;;;;;;;3.05;100.00;99602.34;5002224;28;20051;-89
2021/12/08 09:12:31;;;;;;;17.42;4.75;;;;;;;3.00;100.00;99609.22;5010204;28;20249;-89
2021/12/08 09:15:34;;;;;;;20.08;4.25;;;;;;;3.04;100.00;99610.03;5005029;28;20026;-89
2021/12/08 09:18:18;;;;;;;26.63;4.88;;;;;;;3.03;100.00;99608.34;5010227;28;20076;-92
2021/12/08 09:21:00;;;;;;;19.47;4.30;;;;;;;2.99;100.00;99610.13;5010185;28;20045;-89
2021/12/08 09:23:38;;;;;;;18.15;4.80;;;;;;;3.06;100.00;99618.56;5002790;28;20034;-88
2021/12/08 09:26:10;;;;;;;16.50;3.80;;;;;;;3.03;100.00;99619.44;5006704;28;20033;-88
2021/12/08 09:28:52;;;;;;;19.30;4.38;;;;;;;2.95;100.00;99611.00;5011964;28;20115;-90
2021/12/08 09:31:37;;;;;;;16.92;3.90;;;;;;;3.06;100.00;99633.91;5011126;28;20116;-89
2021/12/08 09:34:14;;;;;;;15.80;4.28;;;;;;;3.06;100.00;99633.91;5010462;28;20056;-90
2021/12/08 09:36:46;;;;;;;16.63;4.10;;;;;;;3.04;100.00;99649.28;5010994;28;20037;-90
2021/12/08 09:39:17;;;;;;;20.65;4.55;;;;;;;3.07;100.00;99659.47;5010372;28;20112;-89
2021/12/08 09:41:50;;;;;;;13.60;3.90;;;;;;;3.13;100.00;99653.47;5009910;28;20026;-90
2021/12/08 09:44:22;;;;;;;13.88;3.78;;;;;;;3.17;100.00;99648.25;5011683;28;20038;-90
2021/12/08 09:46:50;;;;;;;16.55;4.38;;;;;;;3.17;100.00;99647.41;5013470;28;20132;-90
2021/12/08 09:49:22;;;;;;;22.17;3.83;;;;;;;3.34;100.00;99642.09;5010115;28;20112;-89
2021/12/08 09:51:48;;;;;;;18.52;3.53;;;;;;;3.30;100.00;99636.16;5009417;28;20052;-90
2021/12/08 09:54:13;;;;;;;14.27;3.50;;;;;;;3.45;100.00;99655.56;5009789;28;20026;-90
2021/12/08 09:56:40;;;;;;;16.92;4.43;;;;;;;3.51;100.00;99638.41;5010571;28;20037;-90
2021/12/08 09:59:07;;;;;;;12.85;3.13;;;;;;;3.65;100.00;99635.63;5009960;28;20399;-90
2021/12/08 10:01:33;;;;;;;25.63;3.78;;;;;;;3.58;100.00;99619.50;5010876;28;20022;-92
2021/12/08 10:04:00;;;;;;;23.35;3.97;;;;;;;3.59;100.00;99615.25;5010809;28;20026;-90
2021/12/08 10:06:26;;;;;;;15.63;3.67;;;;;;;3.66;100.00;99611.72;5009335;28;20500;-91
2021/12/08 10:08:57;;;;;;;17.42;3.42;;;;;;;3.57;100.00;99605.00;5009457;28;20034;-90
2021/12/08 10:11:25;;;;;;;13.57;3.47;;;;;;;3.64;100.00;99620.28;5010253;28;20024;-91
2021/12/08 10:13:56;;;;;;;21.52;3.65;;;;;;;3.61;100.00;99610.09;5003529;28;20037;-90
2021/12/08 10:16:22;;;;;;;13.95;3.55;;;;;;;3.64;100.00;99612.59;5007169;28;20049;-91
2021/12/08 10:18:48;;;;;;;14.25;3.20;;;;;;;3.64;99.74;99613.44;5008691;28;20032;-90
2021/12/08 10:21:15;;;;;;;15.40;3.30;;;;;;;3.64;99.48;99605.75;5009987;28;20088;-90
2021/12/08 10:23:45;;;;;;;21.73;3.70;;;;;;;3.69;99.55;99606.53;5009241;28;20036;-90
2021/12/08 10:26:23;;;;;;;18.15;3.90;;;;;;;3.64;99.28;99590.38;5010504;28;20148;-91
2021/12/08 10:28:54;;;;;;;19.27;4.00;;;;;;;3.67;99.57;99598.03;5038579;28;20210;-90
2021/12/08 10:31:31;;;;;;;18.15;4.05;;;;;;;3.70;99.78;99597.13;5023829;28;20028;-91
2021/12/08 10:36:52;;;;;;;15.75;3.90;;;;;;;3.73;99.72;99597.94;5009948;28;20042;-90
2021/12/08 10:39:28;;;;;;;15.43;3.55;;;;;;;3.74;98.78;99591.94;5015039;28;20029;-91
2021/12/08 10:42:00;;;;;;;13.82;3.80;;;;;;;3.75;98.86;99598.75;5008795;28;20196;-90
2021/12/08 10:44:27;;;;;;;18.88;3.72;;;;;;;3.75;98.68;99591.06;5009550;28;20491;-89
2021/12/08 10:46:57;;;;;;;34.58;4.35;;;;;;;3.75;98.45;99591.06;5004326;28;20482;-91
2021/12/08 10:54:49;;;;;;;15.93;3.60;;;;;;;3.86;99.12;99589.16;5009663;28;20091;-90
2021/12/08 10:57:32;;;;;;;16.42;3.58;;;;;;;3.85;99.28;99597.72;5021497;28;20585;-89
2021/12/08 11:00:09;;;;;;;17.80;3.50;;;;;;;3.85;99.27;99613.09;5013810;28;20081;-91
2021/12/08 11:02:52;;;;;;;16.77;3.63;;;;;;;3.78;99.08;99597.84;5009947;28;20079;-90
2021/12/08 11:05:24;;;;;;;17.63;3.73;;;;;;;3.85;99.19;99610.53;5010556;28;20487;-92
2021/12/08 11:08:11;;;;;;;15.40;3.28;;;;;;;3.91;97.90;99613.00;5007715;28;20450;-90
2021/12/08 11:10:39;;;;;;;22.90;3.83;;;;;;;3.94;98.74;99607.84;5009609;28;20056;-90
2021/12/08 11:13:07;;;;;;;17.33;4.07;;;;;;;3.98;97.88;99603.50;5010039;28;20038;-89
2021/12/08 11:15:33;;;;;;;18.38;4.35;;;;;;;4.04;99.16;99608.50;5010161;28;20022;-89
2021/12/08 11:18:22;;;;;;;14.82;3.95;;;;;;;4.17;99.00;99627.09;5008005;28;20041;-90
2021/12/08 11:20:47;;;;;;;10.95;3.67;;;;;;;4.24;99.06;99633.81;5008491;28;20487;-90
2021/12/08 11:23:16;;;;;;;14.68;3.70;;;;;;;4.28;99.00;99638.03;5007407;28;20249;-88
2021/12/08 11:25:46;;;;;;;13.70;4.65;;;;;;;4.35;98.75;99649.88;5008247;28;20029;-89
2021/12/08 11:28:30;;;;;;;16.67;4.18;;;;;;;4.58;99.37;99657.13;5009199;28;20032;-89
2021/12/08 11:31:08;;;;;;;17.00;4.07;;;;;;;4.87;98.81;99642.03;5008558;28;20034;-91
2021/12/08 11:33:37;;;;;;;15.43;3.70;;;;;;;5.21;98.14;99656.75;5007262;28;20032;-90
2021/12/08 11:36:25;;;;;;;14.77;3.78;;;;;;;5.37;97.75;99656.41;5006379;28;20491;-90
2021/12/08 11:38:51;;;;;;;14.73;3.50;;;;;;;5.46;94.32;99661.31;5008806;28;20117;-91
2021/12/08 11:41:37;;;;;;;11.90;3.40;;;;;;;5.45;95.91;99656.25;5008560;28;20164;-89
2021/12/08 11:44:15;;;;;;;16.58;3.97;;;;;;;5.59;95.66;99661.06;5007614;28;20029;-90
2021/12/08 11:46:45;;;;;;;10.90;3.08;;;;;;;5.67;93.72;99664.28;4997565;28;20057;-91
2021/12/08 11:49:11;;;;;;;12.73;3.40;;;;;;;5.78;93.53;99672.63;5007066;28;20022;-90
2021/12/08 11:51:43;;;;;;;17.00;3.63;;;;;;;5.79;93.54;99671.75;5007143;28;20046;-91
2021/12/08 11:54:36;;;;;;;16.10;3.50;;;;;;;5.75;94.55;99675.25;5004963;28;20434;-91
2021/12/08 11:57:11;;;;;;;10.35;3.58;;;;;;;5.83;94.10;99681.06;5002170;28;20156;-89
2021/12/08 12:00:11;;;;;;;19.73;4.05;;;;;;;5.78;94.56;99665.75;5005684;28;20467;-90
2021/12/08 12:02:51;;;;;;;9.40;3.70;;;;;;;5.86;94.29;99686.16;5015766;28;20519;-91
2021/12/08 12:05:32;;;;;;;19.38;3.97;;;;;;;5.84;93.04;99693.88;5011278;28;20030;-90
2021/12/08 12:08:01;;;;;;;12.75;3.83;;;;;;;5.76;93.47;99679.50;4999428;28;20523;-90
2021/12/08 12:10:32;;;;;;;14.15;3.75;;;;;;;5.80;93.24;99681.16;5008919;28;20025;-91
2021/12/08 12:12:58;;;;;;;20.63;3.92;;;;;;;5.84;91.81;99683.59;5011373;28;20026;-90
2021/12/08 12:15:29;;;;;;;17.58;4.03;;;;;;;5.84;93.43;99699.03;5010526;28;20114;-91
2021/12/08 12:17:57;;;;;;;15.98;4.18;;;;;;;5.89;92.82;99716.94;5007073;28;20032;-91
2021/12/08 12:20:23;;;;;;;13.20;3.80;;;;;;;5.87;92.95;99706.69;5012653;28;20022;-90
2021/12/08 12:23:13;;;;;;;15.23;3.80;;;;;;;5.91;91.72;99713.47;5019941;28;20033;-90
2021/12/08 12:26:18;;;;;;;15.77;4.00;;;;;;;5.93;93.78;99729.72;5015008;28;20167;-90
2021/12/08 12:28:52;;;;;;;;;;;;;;;5.99;96.01;99735.59;5026148;28;20041;-90
2021/12/08 12:31:40;;;;;;;13.05;3.63;;;;;;;5.97;93.22;99730.50;5012494;28;19972;-90